sensor_id;sensor_type;location;lat;lon;timestamp;pressure;altitude;pressure_sealevel;temperature;humidity
44481;BME280;30184;42.018;23.670;2023-03-01T00:02:09;91906.41;;;3.82;96.44
44481;BME280;30184;42.018;23.670;2023-03-01T00:04:38;91906.41;;;3.86;96.59
44481;BME280;30184;42.018;23.670;2023-03-01T00:07:08;91911.38;;;3.84;96.67
44481;BME280;30184;42.018;23.670;2023-03-01T00:09:37;91835.72;;;3.39;96.56
44481;BME280;30184;42.018;23.670;2023-03-01T00:12:07;91901.41;;;3.84;96.70
44481;BME280;30184;42.018;23.670;2023-03-01T00:14:38;91822.66;;;3.30;96.69
44481;BME280;30184;42.018;23.670;2023-03-01T00:17:08;91861.41;;;3.40;96.80
44481;BME280;30184;42.018;23.670;2023-03-01T00:19:38;91842.59;;;3.36;96.75
44481;BME280;30184;42.018;23.670;2023-03-01T00:22:07;91915.19;;;3.75;96.97
44481;BME280;30184;42.018;23.670;2023-03-01T00:24:37;91909.75;;;3.54;96.97
44481;BME280;30184;42.018;23.670;2023-03-01T00:27:07;91924.41;;;3.74;96.76
44481;BME280;30184;42.018;23.670;2023-03-01T00:29:36;91898.31;;;3.68;96.86
44481;BME280;30184;42.018;23.670;2023-03-01T00:32:08;91938.16;;;3.66;96.63
44481;BME280;30184;42.018;23.670;2023-03-01T00:34:37;91909.06;;;3.75;96.83
44481;BME280;30184;42.018;23.670;2023-03-01T00:37:07;91905.22;;;3.72;96.88
44481;BME280;30184;42.018;23.670;2023-03-01T00:39:36;91894.06;;;3.63;96.85
44481;BME280;30184;42.018;23.670;2023-03-01T00:42:06;91906.34;;;3.71;96.70
44481;BME280;30184;42.018;23.670;2023-03-01T00:44:35;91860.97;;;3.27;96.61
44481;BME280;30184;42.018;23.670;2023-03-01T00:47:05;91866.75;;;3.44;96.85
44481;BME280;30184;42.018;23.670;2023-03-01T00:49:36;91820.28;;;3.11;96.69
44481;BME280;30184;42.018;23.670;2023-03-01T00:52:05;91906.75;;;3.73;97.07
44481;BME280;30184;42.018;23.670;2023-03-01T00:54:35;91840.69;;;3.33;97.21
44481;BME280;30184;42.018;23.670;2023-03-01T00:57:04;91899.47;;;3.74;97.18
44481;BME280;30184;42.018;23.670;2023-03-01T00:59:34;91893.34;;;3.77;97.23
44481;BME280;30184;42.018;23.670;2023-03-01T01:02:04;91920.16;;;3.73;97.28
44481;BME280;30184;42.018;23.670;2023-03-01T01:04:33;91754.69;;;2.87;97.30
44481;BME280;30184;42.018;23.670;2023-03-01T01:07:05;91894.53;;;3.87;97.73
44481;BME280;30184;42.018;23.670;2023-03-01T01:09:35;91894.16;;;3.92;97.80
44481;BME280;30184;42.018;23.670;2023-03-01T01:12:05;91904.53;;;3.97;97.90
44481;BME280;30184;42.018;23.670;2023-03-01T01:14:35;91898.78;;;3.98;98.06
44481;BME280;30184;42.018;23.670;2023-03-01T01:17:04;91781.31;;;3.42;97.84
44481;BME280;30184;42.018;23.670;2023-03-01T01:19:34;91914.53;;;4.10;97.68
44481;BME280;30184;42.018;23.670;2023-03-01T01:22:06;91882.69;;;4.12;97.67
44481;BME280;30184;42.018;23.670;2023-03-01T01:24:35;91820.50;;;3.79;97.42
44481;BME280;30184;42.018;23.670;2023-03-01T01:27:05;91903.44;;;4.16;96.80
44481;BME280;30184;42.018;23.670;2023-03-01T01:29:34;91893.84;;;4.22;97.20
44481;BME280;30184;42.018;23.670;2023-03-01T01:32:04;91874.66;;;4.23;96.90
44481;BME280;30184;42.018;23.670;2023-03-01T01:34:34;91867.72;;;4.19;96.67
44481;BME280;30184;42.018;23.670;2023-03-01T01:37:05;91889.25;;;4.22;96.36
44481;BME280;30184;42.018;23.670;2023-03-01T01:39:35;91855.47;;;4.25;96.33
44481;BME280;30184;42.018;23.670;2023-03-01T01:42:04;91849.72;;;4.26;96.08
44481;BME280;30184;42.018;23.670;2023-03-01T01:44:34;91838.59;;;4.13;95.63
44481;BME280;30184;42.018;23.670;2023-03-01T01:47:06;91843.16;;;4.09;95.53
44481;BME280;30184;42.018;23.670;2023-03-01T01:49:39;91843.56;;;4.22;95.35
44481;BME280;30184;42.018;23.670;2023-03-01T01:52:16;91815.16;;;4.00;94.95
44481;BME280;30184;42.018;23.670;2023-03-01T01:54:51;91840.09;;;4.18;94.58
44481;BME280;30184;42.018;23.670;2023-03-01T01:57:26;91833.59;;;4.05;94.34
44481;BME280;30184;42.018;23.670;2023-03-01T01:59:59;91844.72;;;4.07;93.85
44481;BME280;30184;42.018;23.670;2023-03-01T02:02:40;91759.91;;;3.60;94.01
44481;BME280;30184;42.018;23.670;2023-03-01T02:05:14;91853.16;;;3.98;94.35
44481;BME280;30184;42.018;23.670;2023-03-01T02:07:48;91838.97;;;4.12;94.65
44481;BME280;30184;42.018;23.670;2023-03-01T02:10:20;91819.00;;;4.02;94.65
44481;BME280;30184;42.018;23.670;2023-03-01T02:12:51;91746.09;;;3.58;94.59
44481;BME280;30184;42.018;23.670;2023-03-01T02:15:21;91822.06;;;4.19;94.87
44481;BME280;30184;42.018;23.670;2023-03-01T02:17:52;91820.16;;;4.12;94.80
44481;BME280;30184;42.018;23.670;2023-03-01T02:20:27;91791.00;;;3.96;95.18
44481;BME280;30184;42.018;23.670;2023-03-01T02:23:00;91847.03;;;4.16;95.03
44481;BME280;30184;42.018;23.670;2023-03-01T02:25:37;91673.25;;;3.24;95.02
44481;BME280;30184;42.018;23.670;2023-03-01T02:28:21;91818.25;;;4.20;95.52
44481;BME280;30184;42.018;23.670;2023-03-01T02:30:51;91793.66;;;4.00;95.30
44481;BME280;30184;42.018;23.670;2023-03-01T02:33:38;91836.28;;;4.16;95.43
44481;BME280;30184;42.018;23.670;2023-03-01T02:36:11;91815.16;;;4.18;95.43
44481;BME280;30184;42.018;23.670;2023-03-01T02:38:43;91746.88;;;3.72;95.00
44481;BME280;30184;42.018;23.670;2023-03-01T02:41:15;91754.16;;;3.75;95.09
44481;BME280;30184;42.018;23.670;2023-03-01T02:43:48;91819.41;;;4.15;95.16
44481;BME280;30184;42.018;23.670;2023-03-01T02:46:19;91823.22;;;4.10;95.43
44481;BME280;30184;42.018;23.670;2023-03-01T02:48:51;91834.72;;;4.11;95.63
44481;BME280;30184;42.018;23.670;2023-03-01T02:54:17;91811.31;;;3.87;95.78
44481;BME280;30184;42.018;23.670;2023-03-01T02:56:50;91827.81;;;4.10;95.83
44481;BME280;30184;42.018;23.670;2023-03-01T02:59:28;91865.03;;;4.11;95.67
44481;BME280;30184;42.018;23.670;2023-03-01T03:02:00;91821.31;;;4.07;95.45
44481;BME280;30184;42.018;23.670;2023-03-01T03:04:30;91761.44;;;3.75;95.24
44481;BME280;30184;42.018;23.670;2023-03-01T03:07:00;91857.00;;;4.19;95.10
44481;BME280;30184;42.018;23.670;2023-03-01T03:09:29;91825.91;;;4.21;95.04
44481;BME280;30184;42.018;23.670;2023-03-01T03:11:59;91816.69;;;4.19;94.42
44481;BME280;30184;42.018;23.670;2023-03-01T03:14:30;91732.66;;;3.58;94.12
44481;BME280;30184;42.018;23.670;2023-03-01T03:17:02;91703.09;;;3.19;93.61
44481;BME280;30184;42.018;23.670;2023-03-01T03:19:34;91816.69;;;4.19;93.65
44481;BME280;30184;42.018;23.670;2023-03-01T03:22:03;91808.66;;;4.19;93.34
44481;BME280;30184;42.018;23.670;2023-03-01T03:24:32;91814.41;;;4.21;93.44
44481;BME280;30184;42.018;23.670;2023-03-01T03:27:06;91813.66;;;4.06;93.38
44481;BME280;30184;42.018;23.670;2023-03-01T03:29:37;91759.53;;;3.75;93.23
44481;BME280;30184;42.018;23.670;2023-03-01T03:32:06;91753.00;;;3.77;93.35
44481;BME280;30184;42.018;23.670;2023-03-01T03:34:36;91843.19;;;4.20;93.40
44481;BME280;30184;42.018;23.670;2023-03-01T03:37:05;91819.75;;;4.17;92.67
44481;BME280;30184;42.018;23.670;2023-03-01T03:39:55;91758.38;;;3.77;92.82
44481;BME280;30184;42.018;23.670;2023-03-01T03:45:14;91769.13;;;3.87;92.86
44481;BME280;30184;42.018;23.670;2023-03-01T03:47:43;91796.34;;;4.00;93.29
44481;BME280;30184;42.018;23.670;2023-03-01T03:50:47;91817.47;;;4.19;93.79
44481;BME280;30184;42.018;23.670;2023-03-01T03:53:18;91823.22;;;4.18;93.89
44481;BME280;30184;42.018;23.670;2023-03-01T03:55:48;91679.75;;;3.23;94.20
44481;BME280;30184;42.018;23.670;2023-03-01T03:58:53;91818.63;;;4.18;94.54
44481;BME280;30184;42.018;23.670;2023-03-01T04:01:23;91703.50;;;3.38;94.87
44481;BME280;30184;42.018;23.670;2023-03-01T04:03:53;91817.50;;;4.16;95.10
44481;BME280;30184;42.018;23.670;2023-03-01T04:06:23;91772.56;;;3.66;95.15
44481;BME280;30184;42.018;23.670;2023-03-01T04:08:52;91815.94;;;4.11;95.66
44481;BME280;30184;42.018;23.670;2023-03-01T04:11:26;91823.63;;;4.12;95.57
44481;BME280;30184;42.018;23.670;2023-03-01T04:13:57;91764.50;;;3.73;95.65
44481;BME280;30184;42.018;23.670;2023-03-01T04:16:29;91858.91;;;4.18;95.74
44481;BME280;30184;42.018;23.670;2023-03-01T04:19:00;91759.53;;;3.75;95.36
44481;BME280;30184;42.018;23.670;2023-03-01T04:21:29;91678.97;;;3.22;95.16
44481;BME280;30184;42.018;23.670;2023-03-01T04:23:59;91756.06;;;3.82;95.31
44481;BME280;30184;42.018;23.670;2023-03-01T04:26:29;91782.16;;;3.99;95.16
44481;BME280;30184;42.018;23.670;2023-03-01T04:29:00;91818.22;;;4.27;94.91
44481;BME280;30184;42.018;23.670;2023-03-01T04:31:31;91821.69;;;4.27;94.98
44481;BME280;30184;42.018;23.670;2023-03-01T04:34:01;91841.66;;;4.26;94.87
44481;BME280;30184;42.018;23.670;2023-03-01T04:36:31;91815.56;;;4.34;95.13
44481;BME280;30184;42.018;23.670;2023-03-01T04:39:03;91815.94;;;4.36;94.95
44481;BME280;30184;42.018;23.670;2023-03-01T04:41:41;91746.50;;;3.88;94.81
44481;BME280;30184;42.018;23.670;2023-03-01T04:44:10;91777.19;;;3.98;94.72
44481;BME280;30184;42.018;23.670;2023-03-01T04:46:42;91821.31;;;4.39;94.69
44481;BME280;30184;42.018;23.670;2023-03-01T04:49:11;91748.81;;;3.97;94.63
44481;BME280;30184;42.018;23.670;2023-03-01T04:51:40;91745.75;;;3.98;94.61
44481;BME280;30184;42.018;23.670;2023-03-01T04:54:10;91735.75;;;3.99;94.43
44481;BME280;30184;42.018;23.670;2023-03-01T04:56:40;91832.84;;;4.40;94.20
44481;BME280;30184;42.018;23.670;2023-03-01T04:59:10;91793.31;;;4.33;94.08
44481;BME280;30184;42.018;23.670;2023-03-01T05:01:41;91814.81;;;4.16;94.01
44481;BME280;30184;42.018;23.670;2023-03-01T05:04:11;91802.13;;;4.44;94.13
44481;BME280;30184;42.018;23.670;2023-03-01T05:06:40;91807.09;;;4.46;94.11
44481;BME280;30184;42.018;23.670;2023-03-01T05:09:10;91818.25;;;4.41;94.16
44481;BME280;30184;42.018;23.670;2023-03-01T05:11:40;91728.84;;;4.01;93.76
44481;BME280;30184;42.018;23.670;2023-03-01T05:14:10;91804.44;;;4.49;93.82
44481;BME280;30184;42.018;23.670;2023-03-01T05:16:39;91796.75;;;4.44;93.97
44481;BME280;30184;42.018;23.670;2023-03-01T05:19:10;91792.91;;;4.31;93.58
44481;BME280;30184;42.018;23.670;2023-03-01T05:21:52;91801.72;;;4.46;93.42
44481;BME280;30184;42.018;23.670;2023-03-01T05:24:33;91786.41;;;4.32;93.48
44481;BME280;30184;42.018;23.670;2023-03-01T05:27:03;91805.97;;;4.43;93.55
44481;BME280;30184;42.018;23.670;2023-03-01T05:29:32;91839.38;;;4.42;93.72
44481;BME280;30184;42.018;23.670;2023-03-01T05:32:03;91811.72;;;4.42;93.44
44481;BME280;30184;42.018;23.670;2023-03-01T05:34:35;91748.03;;;4.03;93.01
44481;BME280;30184;42.018;23.670;2023-03-01T05:37:05;91817.84;;;4.46;92.60
44481;BME280;30184;42.018;23.670;2023-03-01T05:39:36;91736.91;;;3.94;92.11
44481;BME280;30184;42.018;23.670;2023-03-01T05:42:05;91843.19;;;4.45;92.24
44481;BME280;30184;42.018;23.670;2023-03-01T05:44:36;91854.34;;;4.43;91.91
44481;BME280;30184;42.018;23.670;2023-03-01T05:47:06;91655.22;;;3.35;91.77
44481;BME280;30184;42.018;23.670;2023-03-01T05:49:37;91829.38;;;4.43;92.27
44481;BME280;30184;42.018;23.670;2023-03-01T05:52:07;91735.75;;;3.81;92.31
44481;BME280;30184;42.018;23.670;2023-03-01T05:54:37;91748.81;;;3.93;92.76
44481;BME280;30184;42.018;23.670;2023-03-01T05:57:06;91837.44;;;4.50;92.94
44481;BME280;30184;42.018;23.670;2023-03-01T05:59:36;91814.41;;;4.38;93.34
44481;BME280;30184;42.018;23.670;2023-03-01T06:02:05;91824.78;;;4.54;92.88
44481;BME280;30184;42.018;23.670;2023-03-01T06:04:35;91835.53;;;4.50;92.84
44481;BME280;30184;42.018;23.670;2023-03-01T06:07:06;91823.25;;;4.53;92.99
44481;BME280;30184;42.018;23.670;2023-03-01T06:09:35;91731.16;;;3.92;92.50
44481;BME280;30184;42.018;23.670;2023-03-01T06:12:05;91837.41;;;4.64;92.57
44481;BME280;30184;42.018;23.670;2023-03-01T06:14:35;91823.59;;;4.55;92.71
44481;BME280;30184;42.018;23.670;2023-03-01T06:17:04;91752.66;;;4.06;91.90
44481;BME280;30184;42.018;23.670;2023-03-01T06:19:34;91778.34;;;4.25;91.37
44481;BME280;30184;42.018;23.670;2023-03-01T06:22:04;91852.41;;;4.72;91.96
44481;BME280;30184;42.018;23.670;2023-03-01T06:24:35;91849.31;;;4.77;91.96
44481;BME280;30184;42.018;23.670;2023-03-01T06:27:05;91850.09;;;4.78;91.09
44481;BME280;30184;42.018;23.670;2023-03-01T06:29:34;91848.91;;;4.82;91.27
44481;BME280;30184;42.018;23.670;2023-03-01T06:32:04;91781.41;;;4.41;90.80
44481;BME280;30184;42.018;23.670;2023-03-01T06:34:33;91793.69;;;3.89;90.81
44481;BME280;30184;42.018;23.670;2023-03-01T06:37:03;91854.69;;;4.88;90.73
44481;BME280;30184;42.018;23.670;2023-03-01T06:39:34;91864.28;;;4.64;90.50
44481;BME280;30184;42.018;23.670;2023-03-01T06:42:04;91921.13;;;4.59;90.63
44481;BME280;30184;42.018;23.670;2023-03-01T06:44:34;91870.03;;;4.95;90.61
44481;BME280;30184;42.018;23.670;2023-03-01T06:47:03;91796.75;;;4.52;90.31
44481;BME280;30184;42.018;23.670;2023-03-01T06:49:32;91858.91;;;4.96;89.85
44481;BME280;30184;42.018;23.670;2023-03-01T06:52:02;91863.50;;;4.96;89.66
44481;BME280;30184;42.018;23.670;2023-03-01T06:54:31;91864.28;;;5.00;89.92
44481;BME280;30184;42.018;23.670;2023-03-01T06:57:02;91851.22;;;4.98;90.00
44481;BME280;30184;42.018;23.670;2023-03-01T06:59:32;91857.31;;;5.13;90.03
44481;BME280;30184;42.018;23.670;2023-03-01T07:02:01;91862.69;;;5.20;90.01
44481;BME280;30184;42.018;23.670;2023-03-01T07:04:30;91856.16;;;5.21;89.77
44481;BME280;30184;42.018;23.670;2023-03-01T07:07:00;91856.50;;;5.30;88.73
44481;BME280;30184;42.018;23.670;2023-03-01T07:09:30;91857.66;;;5.29;88.79
44481;BME280;30184;42.018;23.670;2023-03-01T07:12:01;91888.78;;;5.34;88.33
44481;BME280;30184;42.018;23.670;2023-03-01T07:14:31;91886.09;;;5.34;87.72
44481;BME280;30184;42.018;23.670;2023-03-01T07:17:01;91876.91;;;5.24;87.92
44481;BME280;30184;42.018;23.670;2023-03-01T07:19:31;91842.66;;;5.32;87.96
44481;BME280;30184;42.018;23.670;2023-03-01T07:22:00;91815.44;;;5.19;87.81
44481;BME280;30184;42.018;23.670;2023-03-01T07:24:32;91858.38;;;5.54;88.08
44481;BME280;30184;42.018;23.670;2023-03-01T07:27:03;91867.63;;;5.43;86.99
44481;BME280;30184;42.018;23.670;2023-03-01T07:29:32;91865.25;;;5.59;86.77
44481;BME280;30184;42.018;23.670;2023-03-01T07:32:04;91808.84;;;5.31;86.64
44481;BME280;30184;42.018;23.670;2023-03-01T07:34:34;91878.69;;;5.70;86.28
44481;BME280;30184;42.018;23.670;2023-03-01T07:37:03;91848.69;;;5.71;85.83
44481;BME280;30184;42.018;23.670;2023-03-01T07:39:32;91842.09;;;5.76;85.19
44481;BME280;30184;42.018;23.670;2023-03-01T07:42:04;91702.97;;;4.85;84.80
44481;BME280;30184;42.018;23.670;2023-03-01T07:44:33;91848.25;;;5.83;84.48
44481;BME280;30184;42.018;23.670;2023-03-01T07:47:03;91847.47;;;5.90;84.19
44481;BME280;30184;42.018;23.670;2023-03-01T07:49:32;91843.94;;;5.96;84.11
44481;BME280;30184;42.018;23.670;2023-03-01T07:52:03;91837.03;;;5.99;83.19
44481;BME280;30184;42.018;23.670;2023-03-01T07:54:33;91838.94;;;5.95;82.65
44481;BME280;30184;42.018;23.670;2023-03-01T07:57:04;91827.34;;;6.05;82.97
44481;BME280;30184;42.018;23.670;2023-03-01T07:59:33;91724.00;;;5.08;82.53
44481;BME280;30184;42.018;23.670;2023-03-01T08:02:03;91826.19;;;6.03;82.42
44481;BME280;30184;42.018;23.670;2023-03-01T08:04:33;91807.13;;;5.72;82.32
44481;BME280;30184;42.018;23.670;2023-03-01T08:07:04;91755.69;;;5.56;81.76
44481;BME280;30184;42.018;23.670;2023-03-01T08:09:34;91822.00;;;5.98;82.29
44481;BME280;30184;42.018;23.670;2023-03-01T08:12:06;91829.31;;;6.01;82.20
44481;BME280;30184;42.018;23.670;2023-03-01T08:14:35;91811.63;;;6.00;82.58
44481;BME280;30184;42.018;23.670;2023-03-01T08:17:05;91804.69;;;5.99;82.01
44481;BME280;30184;42.018;23.670;2023-03-01T08:19:34;91812.31;;;6.11;82.50
44481;BME280;30184;42.018;23.670;2023-03-01T08:22:04;91819.22;;;6.12;82.14
44481;BME280;30184;42.018;23.670;2023-03-01T08:24:35;91752.13;;;5.70;82.11
44481;BME280;30184;42.018;23.670;2023-03-01T08:27:06;91762.91;;;5.70;81.53
44481;BME280;30184;42.018;23.670;2023-03-01T08:29:36;91678.59;;;5.24;81.50
44481;BME280;30184;42.018;23.670;2023-03-01T08:32:05;91708.47;;;5.41;81.74
44481;BME280;30184;42.018;23.670;2023-03-01T08:34:35;91809.97;;;6.17;81.45
44481;BME280;30184;42.018;23.670;2023-03-01T08:37:04;91814.50;;;6.27;80.37
44481;BME280;30184;42.018;23.670;2023-03-01T08:39:34;91822.22;;;6.28;80.24
44481;BME280;30184;42.018;23.670;2023-03-01T08:42:04;91819.06;;;6.37;80.44
44481;BME280;30184;42.018;23.670;2023-03-01T08:44:35;91818.97;;;6.48;80.46
44481;BME280;30184;42.018;23.670;2023-03-01T08:47:04;91795.97;;;6.36;79.76
44481;BME280;30184;42.018;23.670;2023-03-01T08:49:34;91820.72;;;6.68;80.00
44481;BME280;30184;42.018;23.670;2023-03-01T08:52:03;91819.91;;;6.75;79.06
44481;BME280;30184;42.018;23.670;2023-03-01T08:54:33;91815.16;;;6.86;78.76
44481;BME280;30184;42.018;23.670;2023-03-01T08:57:02;91863.72;;;6.86;78.52
44481;BME280;30184;42.018;23.670;2023-03-01T08:59:32;91793.53;;;6.93;78.27
44481;BME280;30184;42.018;23.670;2023-03-01T09:02:12;91808.28;;;7.53;78.67
44481;BME280;30184;42.018;23.670;2023-03-01T09:04:41;91824.97;;;7.78;76.42
44481;BME280;30184;42.018;23.670;2023-03-01T09:07:11;91805.72;;;8.03;74.59
44481;BME280;30184;42.018;23.670;2023-03-01T09:09:40;91792.31;;;8.23;74.36
44481;BME280;30184;42.018;23.670;2023-03-01T09:12:10;91801.88;;;8.31;73.93
44481;BME280;30184;42.018;23.670;2023-03-01T09:14:39;91775.53;;;8.35;74.41
44481;BME280;30184;42.018;23.670;2023-03-01T09:17:14;91792.16;;;8.60;73.23
44481;BME280;30184;42.018;23.670;2023-03-01T09:19:43;91785.44;;;8.69;73.48
44481;BME280;30184;42.018;23.670;2023-03-01T09:22:13;91771.94;;;8.69;72.32
44481;BME280;30184;42.018;23.670;2023-03-01T09:24:42;91798.50;;;8.74;71.39
44481;BME280;30184;42.018;23.670;2023-03-01T09:27:12;91772.97;;;8.75;73.50
44481;BME280;30184;42.018;23.670;2023-03-01T09:29:42;91718.22;;;8.44;71.97
44481;BME280;30184;42.018;23.670;2023-03-01T09:32:13;91736.16;;;8.57;72.39
44481;BME280;30184;42.018;23.670;2023-03-01T09:34:42;91773.84;;;8.91;72.28
44481;BME280;30184;42.018;23.670;2023-03-01T09:37:33;91770.59;;;9.00;72.32
44481;BME280;30184;42.018;23.670;2023-03-01T09:40:03;91781.63;;;8.89;71.25
44481;BME280;30184;42.018;23.670;2023-03-01T09:42:34;91762.56;;;8.96;71.75
44481;BME280;30184;42.018;23.670;2023-03-01T09:45:06;91633.81;;;8.09;71.63
44481;BME280;30184;42.018;23.670;2023-03-01T09:47:42;91727.53;;;8.43;71.55
44481;BME280;30184;42.018;23.670;2023-03-01T09:50:13;91687.66;;;8.23;72.29
44481;BME280;30184;42.018;23.670;2023-03-01T09:52:47;91734.09;;;8.65;73.44
44481;BME280;30184;42.018;23.670;2023-03-01T09:55:20;91746.84;;;8.88;72.74
44481;BME280;30184;42.018;23.670;2023-03-01T09:57:56;91755.53;;;8.99;72.91
44481;BME280;30184;42.018;23.670;2023-03-01T10:00:33;91757.63;;;9.11;72.64
44481;BME280;30184;42.018;23.670;2023-03-01T10:03:13;91691.19;;;8.67;72.50
44481;BME280;30184;42.018;23.670;2023-03-01T10:05:55;91707.00;;;8.69;72.78
44481;BME280;30184;42.018;23.670;2023-03-01T10:08:32;91702.53;;;8.58;72.88
44481;BME280;30184;42.018;23.670;2023-03-01T10:11:04;91776.28;;;8.86;73.14
44481;BME280;30184;42.018;23.670;2023-03-01T10:13:45;91742.50;;;8.94;73.37
44481;BME280;30184;42.018;23.670;2023-03-01T10:16:19;91756.78;;;8.94;73.60
44481;BME280;30184;42.018;23.670;2023-03-01T10:18:53;91745.25;;;8.90;73.96
44481;BME280;30184;42.018;23.670;2023-03-01T10:21:26;91752.13;;;8.95;73.86
44481;BME280;30184;42.018;23.670;2023-03-01T10:24:08;91755.19;;;8.97;73.43
44481;BME280;30184;42.018;23.670;2023-03-01T10:26:47;91619.63;;;8.05;73.26
44481;BME280;30184;42.018;23.670;2023-03-01T10:29:18;91747.31;;;8.83;73.65
44481;BME280;30184;42.018;23.670;2023-03-01T10:31:51;91745.34;;;8.64;73.93
44481;BME280;30184;42.018;23.670;2023-03-01T10:34:29;91749.06;;;8.50;74.21
44481;BME280;30184;42.018;23.670;2023-03-01T10:37:01;91733.22;;;8.48;75.16
44481;BME280;30184;42.018;23.670;2023-03-01T10:39:30;91807.38;;;8.24;75.32
44481;BME280;30184;42.018;23.670;2023-03-01T10:42:03;91738.53;;;8.32;75.41
44481;BME280;30184;42.018;23.670;2023-03-01T10:44:43;91725.78;;;8.29;75.05
44481;BME280;30184;42.018;23.670;2023-03-01T10:47:15;91731.19;;;8.29;75.29
44481;BME280;30184;42.018;23.670;2023-03-01T10:49:56;91712.97;;;8.10;75.47
44481;BME280;30184;42.018;23.670;2023-03-01T10:52:32;91751.84;;;8.16;75.63
44481;BME280;30184;42.018;23.670;2023-03-01T10:55:04;91722.72;;;8.04;75.07
44481;BME280;30184;42.018;23.670;2023-03-01T10:58:07;91719.19;;;8.07;75.75
44481;BME280;30184;42.018;23.670;2023-03-01T11:00:46;91725.09;;;7.98;75.63
44481;BME280;30184;42.018;23.670;2023-03-01T11:03:19;91710.25;;;7.86;76.03
44481;BME280;30184;42.018;23.670;2023-03-01T11:06:00;91649.47;;;7.44;76.32
44481;BME280;30184;42.018;23.670;2023-03-01T11:08:36;91696.56;;;7.70;76.62
44481;BME280;30184;42.018;23.670;2023-03-01T11:11:23;91710.13;;;7.67;77.58
44481;BME280;30184;42.018;23.670;2023-03-01T11:13:57;91701.66;;;7.65;77.16
44481;BME280;30184;42.018;23.670;2023-03-01T11:16:29;91704.84;;;7.60;77.71
44481;BME280;30184;42.018;23.670;2023-03-01T11:19:12;91699.84;;;7.58;77.78
44481;BME280;30184;42.018;23.670;2023-03-01T11:21:53;91700.69;;;7.52;77.88
44481;BME280;30184;42.018;23.670;2023-03-01T11:24:30;91700.78;;;7.44;78.10
44481;BME280;30184;42.018;23.670;2023-03-01T11:27:03;91694.97;;;7.46;78.29
44481;BME280;30184;42.018;23.670;2023-03-01T11:29:37;91640.59;;;7.17;78.53
44481;BME280;30184;42.018;23.670;2023-03-01T11:32:15;91686.16;;;7.42;78.52
44481;BME280;30184;42.018;23.670;2023-03-01T11:34:48;91687.19;;;7.52;78.07
44481;BME280;30184;42.018;23.670;2023-03-01T11:37:28;91685.97;;;7.56;78.32
44481;BME280;30184;42.018;23.670;2023-03-01T11:40:10;91679.78;;;7.59;78.79
44481;BME280;30184;42.018;23.670;2023-03-01T11:42:50;91682.91;;;7.54;78.54
44481;BME280;30184;42.018;23.670;2023-03-01T11:45:24;91609.09;;;7.10;78.63
44481;BME280;30184;42.018;23.670;2023-03-01T11:48:14;91670.13;;;7.58;78.30
44481;BME280;30184;42.018;23.670;2023-03-01T11:50:52;91673.28;;;7.53;78.72
44481;BME280;30184;42.018;23.670;2023-03-01T11:56:24;91664.88;;;7.47;79.34
44481;BME280;30184;42.018;23.670;2023-03-01T11:59:24;91657.97;;;7.43;79.50
44481;BME280;30184;42.018;23.670;2023-03-01T12:02:12;91664.13;;;7.47;79.90
44481;BME280;30184;42.018;23.670;2023-03-01T12:05:12;91701.50;;;7.48;79.86
44481;BME280;30184;42.018;23.670;2023-03-01T12:07:46;91568.50;;;6.60;80.07
44481;BME280;30184;42.018;23.670;2023-03-01T12:10:59;91571.44;;;6.73;80.35
44481;BME280;30184;42.018;23.670;2023-03-01T12:14:02;91653.31;;;7.20;80.61
44481;BME280;30184;42.018;23.670;2023-03-01T12:16:53;91669.75;;;7.29;80.85
44481;BME280;30184;42.018;23.670;2023-03-01T12:19:46;91629.31;;;6.95;80.87
44481;BME280;30184;42.018;23.670;2023-03-01T12:22:29;91619.53;;;6.44;81.04
44481;BME280;30184;42.018;23.670;2023-03-01T12:25:28;91665.63;;;7.21;81.44
44481;BME280;30184;42.018;23.670;2023-03-01T12:28:24;91666.72;;;7.24;81.68
44481;BME280;30184;42.018;23.670;2023-03-01T12:31:17;91668.25;;;7.25;81.09
44481;BME280;30184;42.018;23.670;2023-03-01T12:34:00;91672.59;;;7.19;81.04
44481;BME280;30184;42.018;23.670;2023-03-01T12:36:49;91619.63;;;6.33;81.28
44481;BME280;30184;42.018;23.670;2023-03-01T12:39:38;91588.03;;;6.68;81.17
44481;BME280;30184;42.018;23.670;2023-03-01T12:42:17;91670.28;;;7.17;81.10
44481;BME280;30184;42.018;23.670;2023-03-01T12:45:01;91678.78;;;6.85;81.34
44481;BME280;30184;42.018;23.670;2023-03-01T12:47:52;91542.53;;;6.09;81.53
44481;BME280;30184;42.018;23.670;2023-03-01T12:50:34;91637.50;;;6.88;81.47
44481;BME280;30184;42.018;23.670;2023-03-01T12:53:15;91587.31;;;6.33;81.43
44481;BME280;30184;42.018;23.670;2023-03-01T12:55:49;91550.53;;;6.16;81.09
44481;BME280;30184;42.018;23.670;2023-03-01T12:58:25;91647.34;;;7.32;80.80
44481;BME280;30184;42.018;23.670;2023-03-01T13:01:11;91616.69;;;7.19;80.43
44481;BME280;30184;42.018;23.670;2023-03-01T13:03:59;91643.78;;;7.39;80.58
44481;BME280;30184;42.018;23.670;2023-03-01T13:06:35;91651.81;;;7.42;80.38
44481;BME280;30184;42.018;23.670;2023-03-01T13:09:18;91653.00;;;7.41;80.27
44481;BME280;30184;42.018;23.670;2023-03-01T13:11:47;91636.09;;;7.37;80.30
44481;BME280;30184;42.018;23.670;2023-03-01T13:14:36;91592.78;;;7.18;80.55
44481;BME280;30184;42.018;23.670;2023-03-01T13:17:31;91623.63;;;7.47;80.62
44481;BME280;30184;42.018;23.670;2023-03-01T13:20:02;91638.53;;;7.55;80.39
44481;BME280;30184;42.018;23.670;2023-03-01T13:22:32;91635.72;;;7.62;80.06
44481;BME280;30184;42.018;23.670;2023-03-01T13:25:15;91636.88;;;7.61;80.11
44481;BME280;30184;42.018;23.670;2023-03-01T13:27:45;91641.00;;;7.69;80.10
44481;BME280;30184;42.018;23.670;2023-03-01T13:30:38;91633.34;;;7.68;80.05
44481;BME280;30184;42.018;23.670;2023-03-01T13:33:41;91644.38;;;7.77;80.15
44481;BME280;30184;42.018;23.670;2023-03-01T13:36:48;91623.19;;;7.75;79.36
44481;BME280;30184;42.018;23.670;2023-03-01T13:39:29;91518.06;;;6.88;79.07
44481;BME280;30184;42.018;23.670;2023-03-01T13:42:00;91632.94;;;7.93;78.80
44481;BME280;30184;42.018;23.670;2023-03-01T13:44:35;91504.44;;;6.68;78.65